sensor_id;sensor_type;location;lat;lon;timestamp;pressure;altitude;pressure_sealevel;temperature;humidity
75424;BME280;64005;55.160;36.002;2023-04-01T00:02:03;97726.81;;;2.26;70.56
75424;BME280;64005;55.160;36.002;2023-04-01T00:04:30;97732.59;;;2.24;71.22
75424;BME280;64005;55.160;36.002;2023-04-01T00:06:58;97721.63;;;2.24;70.63
75424;BME280;64005;55.160;36.002;2023-04-01T00:09:26;97726.31;;;2.24;70.79
75424;BME280;64005;55.160;36.002;2023-04-01T00:11:55;97722.75;;;2.23;71.11
75424;BME280;64005;55.160;36.002;2023-04-01T00:14:22;97720.63;;;2.20;71.27
75424;BME280;64005;55.160;36.002;2023-04-01T00:16:49;97733.03;;;2.18;71.04
75424;BME280;64005;55.160;36.002;2023-04-01T00:19:18;97722.53;;;2.20;71.09
75424;BME280;64005;55.160;36.002;2023-04-01T00:21:45;97722.69;;;2.15;71.17
75424;BME280;64005;55.160;36.002;2023-04-01T00:24:14;97718.31;;;2.14;71.22
75424;BME280;64005;55.160;36.002;2023-04-01T00:26:41;97717.50;;;2.13;71.39
75424;BME280;64005;55.160;36.002;2023-04-01T00:29:11;97716.72;;;2.13;71.30
75424;BME280;64005;55.160;36.002;2023-04-01T00:31:39;97713.97;;;2.13;71.31
75424;BME280;64005;55.160;36.002;2023-04-01T00:34:06;97704.72;;;2.09;71.69
75424;BME280;64005;55.160;36.002;2023-04-01T00:36:33;97714.91;;;2.08;71.64
75424;BME280;64005;55.160;36.002;2023-04-01T00:39:01;97717.94;;;2.07;71.77
75424;BME280;64005;55.160;36.002;2023-04-01T00:41:28;97719.41;;;2.04;71.73
75424;BME280;64005;55.160;36.002;2023-04-01T00:44:19;97715.34;;;2.02;71.74
75424;BME280;64005;55.160;36.002;2023-04-01T00:46:47;97714.81;;;1.99;71.63
75424;BME280;64005;55.160;36.002;2023-04-01T00:49:16;97713.34;;;1.93;72.23
75424;BME280;64005;55.160;36.002;2023-04-01T00:51:46;97717.41;;;1.96;71.89
75424;BME280;64005;55.160;36.002;2023-04-01T00:54:16;97714.34;;;1.97;72.08
75424;BME280;64005;55.160;36.002;2023-04-01T00:56:47;97721.75;;;1.97;72.07
75424;BME280;64005;55.160;36.002;2023-04-01T00:59:21;97719.97;;;1.92;72.12
75424;BME280;64005;55.160;36.002;2023-04-01T01:01:50;97722.06;;;1.95;71.92
75424;BME280;64005;55.160;36.002;2023-04-01T01:04:25;97708.50;;;1.90;71.72
75424;BME280;64005;55.160;36.002;2023-04-01T01:07:00;97650.28;;;1.49;71.93
75424;BME280;64005;55.160;36.002;2023-04-01T01:09:39;97722.06;;;1.95;71.77
75424;BME280;64005;55.160;36.002;2023-04-01T01:12:13;97726.44;;;1.96;72.20
75424;BME280;64005;55.160;36.002;2023-04-01T01:14:53;97712.34;;;1.89;71.92
75424;BME280;64005;55.160;36.002;2023-04-01T01:17:29;97715.53;;;1.83;71.96
75424;BME280;64005;55.160;36.002;2023-04-01T01:23:36;97716.03;;;1.85;72.29
75424;BME280;64005;55.160;36.002;2023-04-01T01:26:34;97709.72;;;1.84;72.12
75424;BME280;64005;55.160;36.002;2023-04-01T01:29:15;97685.84;;;1.63;72.15
75424;BME280;64005;55.160;36.002;2023-04-01T01:31:50;97725.38;;;1.84;71.91
75424;BME280;64005;55.160;36.002;2023-04-01T01:34:23;97727.09;;;1.80;72.00
75424;BME280;64005;55.160;36.002;2023-04-01T01:37:02;97723.88;;;1.78;72.62
75424;BME280;64005;55.160;36.002;2023-04-01T01:39:33;97726.91;;;1.76;72.00
75424;BME280;64005;55.160;36.002;2023-04-01T01:42:04;97722.56;;;1.75;72.14
75424;BME280;64005;55.160;36.002;2023-04-01T01:44:33;97730.25;;;1.73;72.77
75424;BME280;64005;55.160;36.002;2023-04-01T01:47:02;97724.09;;;1.68;72.45
75424;BME280;64005;55.160;36.002;2023-04-01T01:49:32;97729.47;;;1.73;72.48
75424;BME280;64005;55.160;36.002;2023-04-01T01:52:03;97727.84;;;1.72;72.73
75424;BME280;64005;55.160;36.002;2023-04-01T01:54:30;97729.59;;;1.68;72.90
75424;BME280;64005;55.160;36.002;2023-04-01T01:57:03;97740.25;;;1.69;72.40
75424;BME280;64005;55.160;36.002;2023-04-01T01:59:33;97741.34;;;1.68;72.17
75424;BME280;64005;55.160;36.002;2023-04-01T02:02:03;97735.41;;;1.66;73.13
75424;BME280;64005;55.160;36.002;2023-04-01T02:04:34;97737.13;;;1.62;72.60
75424;BME280;64005;55.160;36.002;2023-04-01T02:07:10;97735.81;;;1.59;72.61
75424;BME280;64005;55.160;36.002;2023-04-01T02:09:40;97732.25;;;1.59;72.75
75424;BME280;64005;55.160;36.002;2023-04-01T02:12:09;97728.50;;;1.55;72.93
75424;BME280;64005;55.160;36.002;2023-04-01T02:14:43;97738.56;;;1.59;72.76
75424;BME280;64005;55.160;36.002;2023-04-01T02:17:14;97741.31;;;1.59;72.94
75424;BME280;64005;55.160;36.002;2023-04-01T02:19:47;97748.19;;;1.57;72.83
75424;BME280;64005;55.160;36.002;2023-04-01T02:22:20;97664.09;;;1.08;72.94
75424;BME280;64005;55.160;36.002;2023-04-01T02:24:50;97743.13;;;1.50;72.71
75424;BME280;64005;55.160;36.002;2023-04-01T02:27:20;97750.56;;;1.50;73.33
75424;BME280;64005;55.160;36.002;2023-04-01T02:29:47;97748.63;;;1.50;72.90
75424;BME280;64005;55.160;36.002;2023-04-01T02:32:16;97742.31;;;1.50;73.04
75424;BME280;64005;55.160;36.002;2023-04-01T02:34:43;97746.47;;;1.47;73.15
75424;BME280;64005;55.160;36.002;2023-04-01T02:37:11;97746.31;;;1.44;73.39
75424;BME280;64005;55.160;36.002;2023-04-01T02:39:41;97739.50;;;1.41;72.92
75424;BME280;64005;55.160;36.002;2023-04-01T02:42:10;97736.28;;;1.39;73.35
75424;BME280;64005;55.160;36.002;2023-04-01T02:44:37;97743.16;;;1.37;73.07
75424;BME280;64005;55.160;36.002;2023-04-01T02:47:04;97741.84;;;1.34;73.72
75424;BME280;64005;55.160;36.002;2023-04-01T02:49:32;97738.72;;;1.27;73.78
75424;BME280;64005;55.160;36.002;2023-04-01T02:51:59;97742.06;;;1.24;73.93
75424;BME280;64005;55.160;36.002;2023-04-01T02:54:27;97742.19;;;1.19;73.50
75424;BME280;64005;55.160;36.002;2023-04-01T02:56:56;97740.34;;;1.14;73.90
75424;BME280;64005;55.160;36.002;2023-04-01T02:59:23;97744.00;;;1.10;74.12
75424;BME280;64005;55.160;36.002;2023-04-01T03:01:50;97755.88;;;1.05;73.75
75424;BME280;64005;55.160;36.002;2023-04-01T03:04:18;97748.28;;;1.02;73.41
75424;BME280;64005;55.160;36.002;2023-04-01T03:06:45;97751.41;;;0.96;73.49
75424;BME280;64005;55.160;36.002;2023-04-01T03:09:13;97754.03;;;0.87;74.13
75424;BME280;64005;55.160;36.002;2023-04-01T03:11:41;97758.31;;;0.79;73.98
75424;BME280;64005;55.160;36.002;2023-04-01T03:14:09;97754.25;;;0.77;74.10
75424;BME280;64005;55.160;36.002;2023-04-01T03:16:37;97764.97;;;0.73;74.76
75424;BME280;64005;55.160;36.002;2023-04-01T03:19:04;97763.47;;;0.67;74.05
75424;BME280;64005;55.160;36.002;2023-04-01T03:21:32;97759.41;;;0.65;74.17
75424;BME280;64005;55.160;36.002;2023-04-01T03:23:59;97772.06;;;0.61;74.64
75424;BME280;64005;55.160;36.002;2023-04-01T03:26:27;97770.25;;;0.56;74.48
75424;BME280;64005;55.160;36.002;2023-04-01T03:28:54;97772.78;;;0.53;73.77
75424;BME280;64005;55.160;36.002;2023-04-01T03:31:24;97772.25;;;0.51;73.80
75424;BME280;64005;55.160;36.002;2023-04-01T03:33:51;97769.81;;;0.49;73.96
75424;BME280;64005;55.160;36.002;2023-04-01T03:36:19;97764.34;;;0.49;74.28
75424;BME280;64005;55.160;36.002;2023-04-01T03:38:46;97774.78;;;0.47;73.85
75424;BME280;64005;55.160;36.002;2023-04-01T03:41:15;97772.34;;;0.46;74.63
75424;BME280;64005;55.160;36.002;2023-04-01T03:43:43;97770.72;;;0.45;74.61
75424;BME280;64005;55.160;36.002;2023-04-01T03:46:16;97777.31;;;0.44;74.61
75424;BME280;64005;55.160;36.002;2023-04-01T03:48:46;97772.13;;;0.42;74.43
75424;BME280;64005;55.160;36.002;2023-04-01T03:51:13;97754.56;;;0.29;74.94
75424;BME280;64005;55.160;36.002;2023-04-01T03:53:40;97780.97;;;0.39;74.11
75424;BME280;64005;55.160;36.002;2023-04-01T03:56:09;97778.72;;;0.41;74.68
75424;BME280;64005;55.160;36.002;2023-04-01T03:58:37;97778.72;;;0.41;74.17
75424;BME280;64005;55.160;36.002;2023-04-01T04:01:14;97788.84;;;0.40;74.45
75424;BME280;64005;55.160;36.002;2023-04-01T04:03:42;97788.53;;;0.42;74.63
75424;BME280;64005;55.160;36.002;2023-04-01T04:06:13;97790.47;;;0.42;74.62
75424;BME280;64005;55.160;36.002;2023-04-01T04:08:40;97787.81;;;0.36;74.67
75424;BME280;64005;55.160;36.002;2023-04-01T04:11:08;97799.78;;;0.40;74.18
75424;BME280;64005;55.160;36.002;2023-04-01T04:13:36;97800.91;;;0.39;75.07
75424;BME280;64005;55.160;36.002;2023-04-01T04:16:04;97800.16;;;0.34;74.88
75424;BME280;64005;55.160;36.002;2023-04-01T04:18:32;97812.63;;;0.40;75.24
75424;BME280;64005;55.160;36.002;2023-04-01T04:21:00;97809.63;;;0.42;75.39
75424;BME280;64005;55.160;36.002;2023-04-01T04:23:29;97800.91;;;0.39;75.45
75424;BME280;64005;55.160;36.002;2023-04-01T04:26:01;97807.41;;;0.44;75.50
75424;BME280;64005;55.160;36.002;2023-04-01T04:28:29;97795.75;;;0.38;74.68
75424;BME280;64005;55.160;36.002;2023-04-01T04:30:57;97812.25;;;0.47;75.48
75424;BME280;64005;55.160;36.002;2023-04-01T04:33:25;97800.91;;;0.39;74.97
75424;BME280;64005;55.160;36.002;2023-04-01T04:35:55;97819.06;;;0.49;75.50
75424;BME280;64005;55.160;36.002;2023-04-01T04:38:24;97810.84;;;0.49;74.78
75424;BME280;64005;55.160;36.002;2023-04-01T04:40:53;97824.97;;;0.56;75.44
75424;BME280;64005;55.160;36.002;2023-04-01T04:43:21;97826.72;;;0.66;74.85
75424;BME280;64005;55.160;36.002;2023-04-01T04:45:49;97830.66;;;0.73;75.29
75424;BME280;64005;55.160;36.002;2023-04-01T04:48:16;97833.53;;;0.82;74.84
75424;BME280;64005;55.160;36.002;2023-04-01T04:50:46;97832.53;;;0.92;74.71
75424;BME280;64005;55.160;36.002;2023-04-01T04:53:18;97807.69;;;0.88;74.95
75424;BME280;64005;55.160;36.002;2023-04-01T04:55:47;97833.97;;;1.03;75.19
75424;BME280;64005;55.160;36.002;2023-04-01T04:58:18;97834.28;;;1.15;74.98
75424;BME280;64005;55.160;36.002;2023-04-01T05:00:46;97840.88;;;1.28;74.95
75424;BME280;64005;55.160;36.002;2023-04-01T05:03:14;97840.88;;;1.41;74.37
75424;BME280;64005;55.160;36.002;2023-04-01T05:05:49;97841.69;;;1.55;74.62
75424;BME280;64005;55.160;36.002;2023-04-01T05:08:17;97829.50;;;1.62;74.58
75424;BME280;64005;55.160;36.002;2023-04-01T05:10:44;97836.75;;;1.80;74.48
75424;BME280;64005;55.160;36.002;2023-04-01T05:13:12;97834.00;;;1.93;74.45
75424;BME280;64005;55.160;36.002;2023-04-01T05:15:40;97831.03;;;2.04;73.94
75424;BME280;64005;55.160;36.002;2023-04-01T05:18:08;97822.06;;;2.12;73.79
75424;BME280;64005;55.160;36.002;2023-04-01T05:20:35;97841.91;;;2.31;73.95
75424;BME280;64005;55.160;36.002;2023-04-01T05:23:03;97822.94;;;2.43;73.71
75424;BME280;64005;55.160;36.002;2023-04-01T05:25:30;97833.38;;;2.55;73.97
75424;BME280;64005;55.160;36.002;2023-04-01T05:27:58;97839.78;;;2.72;73.07
75424;BME280;64005;55.160;36.002;2023-04-01T05:30:25;97846.50;;;2.89;73.45
75424;BME280;64005;55.160;36.002;2023-04-01T05:32:54;97847.53;;;3.01;73.35
75424;BME280;64005;55.160;36.002;2023-04-01T05:35:22;97851.00;;;3.15;73.40
75424;BME280;64005;55.160;36.002;2023-04-01T05:37:50;97848.97;;;3.30;73.29
75424;BME280;64005;55.160;36.002;2023-04-01T05:40:17;97842.25;;;3.44;72.74
75424;BME280;64005;55.160;36.002;2023-04-01T05:42:45;97849.06;;;3.55;72.47
75424;BME280;64005;55.160;36.002;2023-04-01T05:45:12;97838.91;;;3.65;72.04
75424;BME280;64005;55.160;36.002;2023-04-01T05:47:41;97854.94;;;3.80;72.42
75424;BME280;64005;55.160;36.002;2023-04-01T05:50:11;97850.44;;;3.92;72.26
75424;BME280;64005;55.160;36.002;2023-04-01T05:52:39;97854.53;;;4.04;71.84
75424;BME280;64005;55.160;36.002;2023-04-01T05:55:07;97865.72;;;4.16;70.88
75424;BME280;64005;55.160;36.002;2023-04-01T05:57:35;97864.25;;;4.27;70.80
75424;BME280;64005;55.160;36.002;2023-04-01T06:00:03;97866.53;;;4.33;70.54
75424;BME280;64005;55.160;36.002;2023-04-01T06:02:31;97870.72;;;4.39;69.90
75424;BME280;64005;55.160;36.002;2023-04-01T06:05:03;97866.22;;;4.44;70.15
75424;BME280;64005;55.160;36.002;2023-04-01T06:07:40;97869.94;;;4.56;70.09
75424;BME280;64005;55.160;36.002;2023-04-01T06:10:13;97873.16;;;4.67;69.65
75424;BME280;64005;55.160;36.002;2023-04-01T06:12:57;97827.66;;;4.44;69.31
75424;BME280;64005;55.160;36.002;2023-04-01T06:15:35;97871.84;;;4.82;68.61
75424;BME280;64005;55.160;36.002;2023-04-01T06:20:59;97862.91;;;4.93;68.29
75424;BME280;64005;55.160;36.002;2023-04-01T06:23:50;97841.88;;;4.89;67.89
75424;BME280;64005;55.160;36.002;2023-04-01T06:26:31;97873.41;;;5.17;67.96
75424;BME280;64005;55.160;36.002;2023-04-01T06:32:27;97863.63;;;5.37;66.94
75424;BME280;64005;55.160;36.002;2023-04-01T06:35:16;97857.91;;;5.50;66.26
75424;BME280;64005;55.160;36.002;2023-04-01T06:38:18;97861.69;;;5.67;66.48
75424;BME280;64005;55.160;36.002;2023-04-01T06:41:12;97861.19;;;5.73;65.76
75424;BME280;64005;55.160;36.002;2023-04-01T06:52:25;97872.63;;;6.22;64.03
75424;BME280;64005;55.160;36.002;2023-04-01T06:55:00;97854.22;;;6.26;64.17
75424;BME280;64005;55.160;36.002;2023-04-01T06:57:33;97873.25;;;6.48;63.11
75424;BME280;64005;55.160;36.002;2023-04-01T07:33:35;97870.63;;;7.75;58.11
75424;BME280;64005;55.160;36.002;2023-04-01T07:50:30;97887.34;;;8.39;54.90
75424;BME280;64005;55.160;36.002;2023-04-01T08:12:38;97894.56;;;9.67;52.41
75424;BME280;64005;55.160;36.002;2023-04-01T08:15:21;97898.63;;;9.85;51.93
75424;BME280;64005;55.160;36.002;2023-04-01T08:17:57;97906.53;;;9.83;51.40
75424;BME280;64005;55.160;36.002;2023-04-01T08:38:50;97901.94;;;10.57;49.79
75424;BME280;64005;55.160;36.002;2023-04-01T08:55:47;97899.78;;;10.00;49.36
75424;BME280;64005;55.160;36.002;2023-04-01T08:58:48;97925.41;;;10.09;49.63
75424;BME280;64005;55.160;36.002;2023-04-01T09:01:27;97925.50;;;10.13;48.98
75424;BME280;64005;55.160;36.002;2023-04-01T09:04:22;97884.38;;;10.03;49.23
75424;BME280;64005;55.160;36.002;2023-04-01T09:07:03;97916.72;;;10.42;48.88
75424;BME280;64005;55.160;36.002;2023-04-01T09:10:03;97925.00;;;10.58;48.34
75424;BME280;64005;55.160;36.002;2023-04-01T09:18:59;97910.78;;;11.17;47.28
75424;BME280;64005;55.160;36.002;2023-04-01T09:21:55;97928.91;;;11.07;46.74
75424;BME280;64005;55.160;36.002;2023-04-01T09:24:40;97912.19;;;11.07;47.00
75424;BME280;64005;55.160;36.002;2023-04-01T09:27:15;97915.44;;;11.09;46.66
75424;BME280;64005;55.160;36.002;2023-04-01T09:30:07;97923.94;;;11.17;46.73
75424;BME280;64005;55.160;36.002;2023-04-01T09:35:48;97929.09;;;10.80;46.97
75424;BME280;64005;55.160;36.002;2023-04-01T09:38:23;97924.41;;;10.84;47.27
75424;BME280;64005;55.160;36.002;2023-04-01T09:40:57;97933.63;;;10.88;47.32
75424;BME280;64005;55.160;36.002;2023-04-01T09:43:43;97938.31;;;10.84;46.99
75424;BME280;64005;55.160;36.002;2023-04-01T09:46:20;97943.81;;;10.80;46.88
75424;BME280;64005;55.160;36.002;2023-04-01T09:49:07;97946.13;;;10.78;47.14
75424;BME280;64005;55.160;36.002;2023-04-01T09:51:48;97947.59;;;10.72;47.50
75424;BME280;64005;55.160;36.002;2023-04-01T09:54:32;97943.94;;;10.68;47.42
75424;BME280;64005;55.160;36.002;2023-04-01T09:57:33;97949.19;;;10.73;47.79
75424;BME280;64005;55.160;36.002;2023-04-01T10:06:51;97961.63;;;10.44;47.55
75424;BME280;64005;55.160;36.002;2023-04-01T10:12:55;97966.41;;;10.28;47.56
75424;BME280;64005;55.160;36.002;2023-04-01T10:15:50;97964.97;;;10.18;47.79
75424;BME280;64005;55.160;36.002;2023-04-01T10:18:43;97965.22;;;10.13;48.33
75424;BME280;64005;55.160;36.002;2023-04-01T10:27:34;97969.28;;;10.82;47.63
75424;BME280;64005;55.160;36.002;2023-04-01T10:33:44;97978.00;;;10.81;47.32
75424;BME280;64005;55.160;36.002;2023-04-01T10:36:43;97979.00;;;10.72;47.58
75424;BME280;64005;55.160;36.002;2023-04-01T10:39:30;97912.25;;;10.22;47.88
75424;BME280;64005;55.160;36.002;2023-04-01T10:45:32;97976.38;;;10.80;48.02
75424;BME280;64005;55.160;36.002;2023-04-01T10:48:22;97977.34;;;10.87;47.83
75424;BME280;64005;55.160;36.002;2023-04-01T10:51:16;97976.78;;;10.97;47.91
75424;BME280;64005;55.160;36.002;2023-04-01T10:56:52;97979.00;;;11.07;47.74
75424;BME280;64005;55.160;36.002;2023-04-01T10:59:48;97982.06;;;11.02;48.26
75424;BME280;64005;55.160;36.002;2023-04-01T11:19:03;97972.56;;;10.06;50.41
75424;BME280;64005;55.160;36.002;2023-04-01T11:25:38;97987.19;;;10.03;50.13
75424;BME280;64005;55.160;36.002;2023-04-01T11:34:53;97999.41;;;9.86;50.92
75424;BME280;64005;55.160;36.002;2023-04-01T11:40:20;97994.00;;;9.62;51.49
75424;BME280;64005;55.160;36.002;2023-04-01T11:59:12;97999.34;;;8.74;53.66
75424;BME280;64005;55.160;36.002;2023-04-01T12:01:55;98005.81;;;8.66;54.08
75424;BME280;64005;55.160;36.002;2023-04-01T12:04:54;98004.09;;;8.62;54.29
75424;BME280;64005;55.160;36.002;2023-04-01T12:07:55;97993.03;;;8.50;54.60
75424;BME280;64005;55.160;36.002;2023-04-01T12:13:11;97996.38;;;8.43;55.31
75424;BME280;64005;55.160;36.002;2023-04-01T12:15:54;97991.28;;;8.45;55.58
75424;BME280;64005;55.160;36.002;2023-04-01T12:18:28;98005.84;;;8.42;55.80
75424;BME280;64005;55.160;36.002;2023-04-01T12:21:14;98003.31;;;8.37;56.15
75424;BME280;64005;55.160;36.002;2023-04-01T12:27:11;98009.25;;;8.27;57.03
75424;BME280;64005;55.160;36.002;2023-04-01T12:32:43;98014.38;;;8.37;57.18
75424;BME280;64005;55.160;36.002;2023-04-01T12:35:20;98020.94;;;8.45;57.32
75424;BME280;64005;55.160;36.002;2023-04-01T12:38:02;98022.94;;;8.44;57.47
75424;BME280;64005;55.160;36.002;2023-04-01T12:40:56;98024.75;;;8.40;57.49
75424;BME280;64005;55.160;36.002;2023-04-01T12:44:04;98027.16;;;8.29;58.01
75424;BME280;64005;55.160;36.002;2023-04-01T12:52:19;97970.38;;;7.66;59.19
75424;BME280;64005;55.160;36.002;2023-04-01T12:58:26;98039.00;;;8.06;59.31
75424;BME280;64005;55.160;36.002;2023-04-01T13:04:25;98052.97;;;7.97;59.49
75424;BME280;64005;55.160;36.002;2023-04-01T13:10:04;98067.03;;;7.71;61.09
75424;BME280;64005;55.160;36.002;2023-04-01T13:15:25;97961.06;;;6.84;61.46
75424;BME280;64005;55.160;36.002;2023-04-01T13:17:58;98053.66;;;7.40;61.97
75424;BME280;64005;55.160;36.002;2023-04-01T13:20:41;98069.00;;;7.38;62.46
75424;BME280;64005;55.160;36.002;2023-04-01T13:23:19;98074.16;;;7.39;61.96
75424;BME280;64005;55.160;36.002;2023-04-01T13:25:59;98077.41;;;7.41;62.43
75424;BME280;64005;55.160;36.002;2023-04-01T13:28:36;98077.41;;;7.41;62.36
75424;BME280;64005;55.160;36.002;2023-04-01T13:31:14;98061.13;;;7.40;62.60
75424;BME280;64005;55.160;36.002;2023-04-01T13:33:50;98085.56;;;7.58;62.58
75424;BME280;64005;55.160;36.002;2023-04-01T13:36:26;98095.03;;;7.57;62.32
75424;BME280;64005;55.160;36.002;2023-04-01T13:42:22;98103.03;;;7.71;62.29
75424;BME280;64005;55.160;36.002;2023-04-01T13:44:57;98066.53;;;7.57;62.69
75424;BME280;64005;55.160;36.002;2023-04-01T13:47:55;98094.31;;;7.81;62.34
75424;BME280;64005;55.160;36.002;2023-04-01T13:50:37;98091.53;;;7.81;62.72
75424;BME280;64005;55.160;36.002;2023-04-01T13:53:38;98096.28;;;7.81;62.87
75424;BME280;64005;55.160;36.002;2023-04-01T13:56:19;98102.63;;;7.81;63.54
75424;BME280;64005;55.160;36.002;2023-04-01T14:01:43;98093.84;;;7.79;63.74
75424;BME280;64005;55.160;36.002;2023-04-01T14:04:36;98102.50;;;7.78;63.62
75424;BME280;64005;55.160;36.002;2023-04-01T14:07:19;98069.75;;;7.59;64.18
75424;BME280;64005;55.160;36.002;2023-04-01T14:10:02;98102.06;;;7.88;63.72
75424;BME280;64005;55.160;36.002;2023-04-01T14:12:40;98101.84;;;7.93;64.15
75424;BME280;64005;55.160;36.002;2023-04-01T14:18:16;98112.06;;;8.13;64.31
75424;BME280;64005;55.160;36.002;2023-04-01T14:21:01;98115.19;;;8.12;64.05
75424;BME280;64005;55.160;36.002;2023-04-01T14:26:34;98116.97;;;7.95;64.94
75424;BME280;64005;55.160;36.002;2023-04-01T14:31:57;98120.81;;;7.70;65.17
75424;BME280;64005;55.160;36.002;2023-04-01T14:34:37;98117.66;;;7.72;65.52
75424;BME280;64005;55.160;36.002;2023-04-01T14:37:20;98130.09;;;7.66;65.89
75424;BME280;64005;55.160;36.002;2023-04-01T14:46:08;98144.13;;;7.40;66.75
75424;BME280;64005;55.160;36.002;2023-04-01T14:48:51;98137.38;;;7.29;66.72
75424;BME280;64005;55.160;36.002;2023-04-01T14:51:28;98148.25;;;7.34;67.08
75424;BME280;64005;55.160;36.002;2023-04-01T14:54:04;98141.09;;;7.33;67.26
75424;BME280;64005;55.160;36.002;2023-04-01T14:56:38;98150.53;;;7.32;67.02
75424;BME280;64005;55.160;36.002;2023-04-01T14:59:10;98140.16;;;7.29;67.53
75424;BME280;64005;55.160;36.002;2023-04-01T15:01:44;98134.16;;;7.27;67.13
75424;BME280;64005;55.160;36.002;2023-04-01T15:08:03;98131.44;;;7.18;66.93
75424;BME280;64005;55.160;36.002;2023-04-01T15:16:32;98150.56;;;7.02;67.99
75424;BME280;64005;55.160;36.002;2023-04-01T15:19:14;98166.03;;;7.03;67.98
75424;BME280;64005;55.160;36.002;2023-04-01T15:21:55;98157.44;;;6.96;68.69
75424;BME280;64005;55.160;36.002;2023-04-01T15:24:38;98161.47;;;6.99;68.61
75424;BME280;64005;55.160;36.002;2023-04-01T15:27:19;98160.34;;;7.00;68.57
75424;BME280;64005;55.160;36.002;2023-04-01T15:30:17;98162.97;;;6.96;68.74
75424;BME280;64005;55.160;36.002;2023-04-01T15:32:56;98079.19;;;6.37;69.06
75424;BME280;64005;55.160;36.002;2023-04-01T15:35:39;98162.19;;;6.87;69.24
75424;BME280;64005;55.160;36.002;2023-04-01T15:38:20;98163.50;;;6.81;69.95
75424;BME280;64005;55.160;36.002;2023-04-01T15:40:55;98170.38;;;6.75;70.27
75424;BME280;64005;55.160;36.002;2023-04-01T15:43:36;98137.31;;;6.49;70.37
75424;BME280;64005;55.160;36.002;2023-04-01T15:46:39;98180.81;;;6.69;69.38
75424;BME280;64005;55.160;36.002;2023-04-01T15:49:25;98149.69;;;6.43;70.05
75424;BME280;64005;55.160;36.002;2023-04-01T15:52:16;98181.31;;;6.63;70.35
75424;BME280;64005;55.160;36.002;2023-04-01T15:55:12;98177.94;;;6.57;70.81
75424;BME280;64005;55.160;36.002;2023-04-01T15:57:52;98175.81;;;6.46;70.64
75424;BME280;64005;55.160;36.002;2023-04-01T16:00:30;98179.59;;;6.41;70.63
75424;BME280;64005;55.160;36.002;2023-04-01T16:03:22;98181.34;;;6.46;70.22
75424;BME280;64005;55.160;36.002;2023-04-01T16:06:14;98201.50;;;6.46;71.08
75424;BME280;64005;55.160;36.002;2023-04-01T16:09:00;98207.69;;;6.43;71.02
75424;BME280;64005;55.160;36.002;2023-04-01T16:11:34;98208.84;;;6.42;70.74
75424;BME280;64005;55.160;36.002;2023-04-01T16:14:17;98213.84;;;6.49;71.50
75424;BME280;64005;55.160;36.002;2023-04-01T16:17:00;98209.31;;;6.44;71.06
75424;BME280;64005;55.160;36.002;2023-04-01T16:19:45;98176.88;;;6.24;71.18
75424;BME280;64005;55.160;36.002;2023-04-01T16:22:21;98217.31;;;6.37;71.88
75424;BME280;64005;55.160;36.002;2023-04-01T16:24:54;98217.31;;;6.37;71.36
75424;BME280;64005;55.160;36.002;2023-04-01T16:27:29;98216.50;;;6.36;71.73
75424;BME280;64005;55.160;36.002;2023-04-01T16:30:10;98199.59;;;6.29;72.16
75424;BME280;64005;55.160;36.002;2023-04-01T16:33:13;98207.56;;;6.31;71.77
75424;BME280;64005;55.160;36.002;2023-04-01T16:35:47;98221.03;;;6.32;71.95
75424;BME280;64005;55.160;36.002;2023-04-01T16:38:32;98223.16;;;6.27;71.84
75424;BME280;64005;55.160;36.002;2023-04-01T16:41:14;98225.28;;;6.30;72.59
75424;BME280;64005;55.160;36.002;2023-04-01T16:44:20;98218.13;;;6.20;72.75
75424;BME280;64005;55.160;36.002;2023-04-01T16:46:57;98230.16;;;6.24;72.66
75424;BME280;64005;55.160;36.002;2023-04-01T16:49:33;98236.50;;;6.25;72.97
75424;BME280;64005;55.160;36.002;2023-04-01T16:52:14;98237.44;;;6.20;72.95
75424;BME280;64005;55.160;36.002;2023-04-01T16:54:47;98237.28;;;6.25;72.75
75424;BME280;64005;55.160;36.002;2023-04-01T16:57:26;98241.84;;;6.21;73.21
75424;BME280;64005;55.160;36.002;2023-04-01T17:00:03;98239.91;;;6.22;73.19
75424;BME280;64005;55.160;36.002;2023-04-01T17:02:37;98230.16;;;6.07;72.96
75424;BME280;64005;55.160;36.002;2023-04-01T17:05:09;98244.47;;;6.18;73.41
75424;BME280;64005;55.160;36.002;2023-04-01T17:07:47;98245.75;;;6.20;73.12
75424;BME280;64005;55.160;36.002;2023-04-01T17:10:37;98239.09;;;6.21;72.82
75424;BME280;64005;55.160;36.002;2023-04-01T17:13:26;98239.56;;;6.15;73.14
75424;BME280;64005;55.160;36.002;2023-04-01T17:16:05;98217.66;;;6.01;72.88
75424;BME280;64005;55.160;36.002;2023-04-01T17:18:44;98240.72;;;6.14;73.91
75424;BME280;64005;55.160;36.002;2023-04-01T17:21:16;98249.78;;;6.06;72.86
75424;BME280;64005;55.160;36.002;2023-04-01T17:23:51;98250.94;;;6.13;73.20
75424;BME280;64005;55.160;36.002;2023-04-01T17:26:26;98246.56;;;6.04;74.17
75424;BME280;64005;55.160;36.002;2023-04-01T17:29:02;98257.44;;;6.17;73.07
75424;BME280;64005;55.160;36.002;2023-04-01T17:31:43;98226.59;;;5.98;73.48
75424;BME280;64005;55.160;36.002;2023-04-01T17:37:22;98262.16;;;6.17;73.74
75424;BME280;64005;55.160;36.002;2023-04-01T17:40:20;98269.78;;;6.20;73.88
75424;BME280;64005;55.160;36.002;2023-04-01T17:42:56;98195.22;;;5.68;73.85
75424;BME280;64005;55.160;36.002;2023-04-01T17:45:32;98255.50;;;6.09;73.78
75424;BME280;64005;55.160;36.002;2023-04-01T17:48:15;98286.53;;;6.23;73.63
75424;BME280;64005;55.160;36.002;2023-04-01T17:50:55;98274.50;;;6.11;73.52
75424;BME280;64005;55.160;36.002;2023-04-01T17:53:38;98294.00;;;6.23;73.84
75424;BME280;64005;55.160;36.002;2023-04-01T17:56:17;98287.66;;;6.22;74.24
75424;BME280;64005;55.160;36.002;2023-04-01T17:58:58;98281.16;;;6.18;73.87
75424;BME280;64005;55.160;36.002;2023-04-01T18:04:37;98284.72;;;6.19;73.72
75424;BME280;64005;55.160;36.002;2023-04-01T18:10:10;98295.63;;;6.24;73.60
75424;BME280;64005;55.160;36.002;2023-04-01T18:12:50;98290.59;;;6.17;73.72
75424;BME280;64005;55.160;36.002;2023-04-01T18:15:28;98269.47;;;6.04;73.65